Alpha, New Jersey
Current Conditions -  °F | °C
As of 12:51 AM on Friday 31 Oct 2014 (Local Time) from KABE Reporting Station
Clear Clear  
Wind Chill:   Ceiling: Unl
Heat Index:   Visibility: 10mi
Dew Point: -1°   Wind: 3mph
Humidity: 89%   Direction: 230°SW
Pressure: 30.04"   Gusts: NA
Location:  40.7083°N, 75.1472°W
Report Text: KABE 310451Z 23003KT 10SM CLR 01/M01 A3004 RMK AO2 SLP174 T00061011 401390006
Loading
Personal Weather Stations






























Interactive Weather Map New forecast layout! Learn more

10-Day Weather Forecast

Advertisements
Track Severe Weather on mobile